Time;durP1;ratioP1;P1;durP2;ratioP2;P2;SDS_P1;SDS_P2;PMS_P1;PMS_P2;Temp;Humidity;BMP_temperature;BMP_pressure;BME280_temperature;BME280_humidity;BME280_pressure;Samples;Min_cycle;Max_cycle;Signal;HPM_P1;HPM_P2
2023/09/15 00:01:41;;;;;;;10.52;6.45;;;12.00;99.90;;;;;;5041538;28;20116;-43
2023/09/15 00:04:08;;;;;;;11.60;5.95;;;12.00;99.90;;;;;;5023341;28;20186;-43
2023/09/15 00:06:35;;;;;;;11.15;6.07;;;12.00;99.90;;;;;;5040895;28;20104;-43
2023/09/15 00:09:06;;;;;;;9.35;5.65;;;12.00;99.90;;;;;;5040875;28;20227;-44
2023/09/15 00:11:39;;;;;;;13.32;7.13;;;12.00;99.90;;;;;;5022940;28;20041;-43
2023/09/15 00:14:07;;;;;;;10.20;6.05;;;12.00;99.90;;;;;;5023425;28;20045;-43
2023/09/15 00:16:33;;;;;;;9.52;6.32;;;12.00;99.90;;;;;;5040676;28;20464;-43
2023/09/15 00:18:58;;;;;;;8.63;5.75;;;11.90;99.90;;;;;;5006642;28;20041;-43
2023/09/15 00:21:24;;;;;;;8.88;5.57;;;11.90;99.90;;;;;;5022967;28;20048;-44
2023/09/15 00:23:50;;;;;;;12.18;6.28;;;11.90;99.90;;;;;;5041236;28;20451;-43
2023/09/15 00:26:15;;;;;;;8.55;6.20;;;11.90;99.90;;;;;;5040419;28;20052;-43
2023/09/15 00:28:41;;;;;;;8.52;5.80;;;11.80;99.90;;;;;;5041003;28;20044;-43
2023/09/15 00:31:09;;;;;;;10.82;6.45;;;11.80;99.90;;;;;;5006223;28;20712;-43
2023/09/15 00:33:34;;;;;;;9.93;5.97;;;11.80;99.90;;;;;;5040817;28;20059;-44
2023/09/15 00:36:02;;;;;;;8.40;6.28;;;11.70;99.90;;;;;;5040599;28;20028;-42
2023/09/15 00:38:27;;;;;;;14.95;6.82;;;11.80;99.90;;;;;;5022566;28;20215;-45
2023/09/15 00:40:53;;;;;;;13.23;6.25;;;11.70;99.90;;;;;;5041119;28;20075;-42
2023/09/15 00:43:18;;;;;;;9.10;6.18;;;11.60;99.90;;;;;;5040999;28;20068;-43
2023/09/15 00:45:44;;;;;;;7.88;5.35;;;11.60;99.90;;;;;;5023308;28;20058;-44
2023/09/15 00:48:11;;;;;;;9.70;6.07;;;11.60;99.90;;;;;;5039192;28;20559;-44
2023/09/15 00:50:37;;;;;;;14.15;6.88;;;11.60;99.90;;;;;;5022653;28;20041;-42
2023/09/15 00:53:09;;;;;;;8.60;6.28;;;11.50;99.90;;;;;;5040651;28;20060;-43
2023/09/15 00:55:36;;;;;;;9.43;6.18;;;11.50;99.90;;;;;;5040997;28;20045;-43
2023/09/15 00:58:12;;;;;;;7.07;5.72;;;11.50;99.90;;;;;;5040399;28;20077;-43
2023/09/15 01:00:42;;;;;;;10.35;6.20;;;11.50;99.90;;;;;;5040423;28;20037;-43
2023/09/15 01:03:08;;;;;;;11.68;6.38;;;11.50;99.90;;;;;;5039904;28;20045;-44
2023/09/15 01:05:35;;;;;;;13.27;6.43;;;11.50;99.90;;;;;;5040259;28;20087;-42
2023/09/15 01:08:02;;;;;;;9.55;6.28;;;11.50;99.90;;;;;;5039833;28;20045;-45
2023/09/15 01:10:28;;;;;;;10.52;6.22;;;11.40;99.90;;;;;;5012637;28;20064;-44
2023/09/15 01:12:55;;;;;;;10.68;5.95;;;11.40;99.90;;;;;;5021924;28;20408;-43
2023/09/15 01:15:48;;;;;;;9.35;6.47;;;11.40;99.90;;;;;;5040292;28;20140;-45
2023/09/15 01:18:28;;;;;;;12.73;7.10;;;11.40;99.90;;;;;;5037104;28;20044;-43
2023/09/15 01:21:15;;;;;;;10.60;5.80;;;11.40;99.90;;;;;;5039721;28;20053;-45
2023/09/15 01:24:18;;;;;;;10.13;7.10;;;11.40;99.90;;;;;;5039985;28;20492;-46
2023/09/15 01:27:09;;;;;;;9.90;6.43;;;11.30;99.90;;;;;;5034741;28;20056;-42
2023/09/15 01:29:45;;;;;;;10.93;6.60;;;11.30;99.90;;;;;;5027993;28;20645;-44
2023/09/15 01:32:12;;;;;;;12.20;6.22;;;11.30;99.90;;;;;;5039027;28;20033;-43
2023/09/15 01:34:38;;;;;;;12.13;6.45;;;11.30;99.90;;;;;;5039287;28;20045;-43
2023/09/15 01:37:04;;;;;;;7.80;6.13;;;11.30;99.90;;;;;;5039756;28;20064;-42
2023/09/15 01:39:30;;;;;;;8.88;6.05;;;11.30;99.90;;;;;;5039732;28;20033;-43
2023/09/15 01:42:02;;;;;;;9.10;6.50;;;11.30;99.90;;;;;;5040039;28;20569;-43
2023/09/15 01:44:28;;;;;;;9.13;6.10;;;11.30;99.90;;;;;;5021500;28;20106;-44
2023/09/15 01:46:53;;;;;;;10.77;6.82;;;11.20;99.90;;;;;;5039421;28;20438;-42
2023/09/15 01:49:21;;;;;;;11.60;6.90;;;11.30;99.90;;;;;;5039987;28;20558;-42
2023/09/15 01:51:48;;;;;;;15.35;7.10;;;11.20;99.90;;;;;;5040002;28;20295;-44
2023/09/15 01:54:14;;;;;;;9.38;6.68;;;11.30;99.90;;;;;;5021574;28;20532;-42
2023/09/15 01:56:40;;;;;;;8.65;6.47;;;11.20;99.90;;;;;;5021134;28;20048;-44
2023/09/15 01:59:06;;;;;;;10.63;6.75;;;11.20;99.90;;;;;;5039681;28;20424;-43
2023/09/15 02:01:31;;;;;;;9.23;6.57;;;11.20;99.90;;;;;;5022957;28;20056;-43
2023/09/15 02:03:57;;;;;;;8.85;6.53;;;11.20;99.90;;;;;;5039553;28;20048;-43
2023/09/15 02:06:22;;;;;;;12.45;6.40;;;11.10;99.90;;;;;;5003680;28;20056;-43
2023/09/15 02:08:48;;;;;;;13.05;6.70;;;11.10;99.90;;;;;;5021557;28;20095;-46
2023/09/15 02:11:14;;;;;;;13.05;5.88;;;11.20;99.90;;;;;;5039763;28;20053;-42
2023/09/15 02:13:43;;;;;;;12.20;6.57;;;11.20;99.90;;;;;;5021846;28;20107;-43
2023/09/15 02:16:09;;;;;;;10.05;6.43;;;11.10;99.90;;;;;;5039468;28;20044;-44
2023/09/15 02:18:35;;;;;;;12.13;6.95;;;11.10;99.90;;;;;;5012964;28;20092;-43
2023/09/15 02:21:00;;;;;;;11.02;6.65;;;11.10;99.90;;;;;;5040199;28;20503;-43
2023/09/15 02:23:26;;;;;;;12.43;7.00;;;11.10;99.90;;;;;;5005502;28;20037;-44
2023/09/15 02:25:52;;;;;;;16.38;7.32;;;11.00;99.90;;;;;;5039216;28;20045;-43
2023/09/15 02:28:21;;;;;;;10.68;6.93;;;11.00;99.90;;;;;;5039647;28;20776;-45
2023/09/15 02:30:47;;;;;;;8.75;5.90;;;11.00;99.90;;;;;;5041033;28;20045;-45
2023/09/15 02:33:13;;;;;;;12.57;7.38;;;11.00;99.90;;;;;;5043740;28;20424;-44
2023/09/15 02:35:39;;;;;;;11.45;6.50;;;11.00;99.90;;;;;;5024995;28;20037;-43
2023/09/15 02:38:05;;;;;;;12.68;7.22;;;11.00;99.90;;;;;;5024874;28;20068;-42
2023/09/15 02:40:30;;;;;;;12.35;7.00;;;11.00;99.90;;;;;;5043387;28;20041;-44
2023/09/15 02:42:56;;;;;;;10.60;6.93;;;11.00;99.90;;;;;;5043626;28;20041;-42
2023/09/15 02:45:22;;;;;;;10.48;7.10;;;10.90;99.90;;;;;;5043114;28;20037;-43
2023/09/15 02:47:48;;;;;;;8.32;6.53;;;10.90;99.90;;;;;;5042157;28;20052;-43
2023/09/15 02:50:13;;;;;;;10.85;6.55;;;10.90;99.90;;;;;;5042777;28;20041;-43
2023/09/15 02:52:39;;;;;;;13.88;7.75;;;10.80;99.90;;;;;;5008888;28;20056;-43
2023/09/15 02:55:05;;;;;;;9.05;6.05;;;10.90;99.90;;;;;;5024034;28;20091;-41
2023/09/15 02:57:31;;;;;;;10.25;6.97;;;10.80;99.90;;;;;;5024908;28;20067;-43
2023/09/15 02:59:56;;;;;;;11.40;7.10;;;10.80;99.90;;;;;;5042947;28;20500;-44
2023/09/15 03:02:22;;;;;;;11.70;6.75;;;10.80;99.90;;;;;;5043426;28;20043;-46
2023/09/15 03:04:49;;;;;;;13.52;7.22;;;10.80;99.90;;;;;;5042657;28;20155;-43
2023/09/15 03:07:15;;;;;;;13.18;7.30;;;10.70;99.90;;;;;;5042579;28;20967;-43
2023/09/15 03:09:42;;;;;;;12.70;6.57;;;10.80;99.90;;;;;;5024079;28;20135;-43
2023/09/15 03:12:07;;;;;;;10.23;6.82;;;10.80;99.90;;;;;;5042673;28;20106;-43
2023/09/15 03:14:33;;;;;;;10.38;6.43;;;10.80;99.90;;;;;;5007717;28;20041;-43
2023/09/15 03:16:59;;;;;;;10.82;7.45;;;10.70;99.90;;;;;;5024530;28;20044;-42
2023/09/15 03:19:25;;;;;;;10.18;6.45;;;10.70;99.90;;;;;;5042757;28;20067;-42
2023/09/15 03:21:51;;;;;;;9.60;6.25;;;10.70;99.90;;;;;;5043348;28;20401;-43
2023/09/15 03:24:18;;;;;;;9.30;6.88;;;10.70;99.90;;;;;;5042395;28;20395;-43
2023/09/15 03:26:43;;;;;;;9.00;6.13;;;10.60;99.90;;;;;;5024215;28;20041;-45
2023/09/15 03:29:09;;;;;;;9.15;7.43;;;10.60;99.90;;;;;;5042394;28;20151;-42
2023/09/15 03:31:34;;;;;;;10.88;5.97;;;10.60;99.90;;;;;;5024401;28;20130;-44
2023/09/15 03:34:00;;;;;;;14.65;6.53;;;10.60;99.90;;;;;;5024752;28;20300;-42
2023/09/15 03:36:26;;;;;;;7.20;6.50;;;10.60;99.90;;;;;;5023960;28;20037;-42
2023/09/15 03:38:52;;;;;;;11.15;6.75;;;10.60;99.90;;;;;;5042195;28;20040;-42
2023/09/15 03:41:17;;;;;;;8.93;6.63;;;10.50;99.90;;;;;;5041917;28;20144;-44
2023/09/15 03:43:43;;;;;;;12.57;7.20;;;10.50;99.90;;;;;;5041516;28;20043;-45
2023/09/15 03:46:09;;;;;;;8.95;6.43;;;10.50;99.90;;;;;;5023136;28;20780;-44
2023/09/15 03:48:34;;;;;;;9.23;6.60;;;10.50;99.90;;;;;;5041466;28;20474;-43
2023/09/15 03:51:00;;;;;;;12.10;7.28;;;10.40;99.90;;;;;;5042125;28;20088;-43
2023/09/15 03:53:26;;;;;;;8.90;7.15;;;10.40;99.90;;;;;;5042094;28;20095;-43
2023/09/15 03:55:52;;;;;;;12.52;7.07;;;10.40;99.90;;;;;;5041458;28;20059;-44
2023/09/15 03:58:17;;;;;;;11.30;6.65;;;10.40;99.90;;;;;;5042125;28;20048;-43
2023/09/15 04:00:43;;;;;;;10.55;6.25;;;10.30;99.90;;;;;;5023617;28;20116;-42
2023/09/15 04:03:09;;;;;;;10.30;5.85;;;10.30;99.90;;;;;;5025207;28;20045;-44
2023/09/15 04:05:35;;;;;;;11.52;6.68;;;10.30;99.90;;;;;;5022708;28;20049;-44
2023/09/15 04:08:01;;;;;;;8.73;6.97;;;10.30;99.90;;;;;;5023408;28;20053;-44
2023/09/15 04:10:27;;;;;;;9.93;7.10;;;10.30;99.90;;;;;;5041497;28;20213;-42
2023/09/15 04:12:52;;;;;;;11.48;6.75;;;10.20;99.90;;;;;;5041658;28;20049;-42
2023/09/15 04:15:18;;;;;;;13.10;6.95;;;10.20;99.90;;;;;;5023478;28;20092;-43
2023/09/15 04:17:44;;;;;;;11.88;6.68;;;10.20;99.90;;;;;;5006607;28;20049;-43
2023/09/15 04:20:10;;;;;;;10.10;7.13;;;10.20;99.90;;;;;;5041576;28;20080;-43
2023/09/15 04:22:40;;;;;;;10.15;7.03;;;10.20;99.90;;;;;;5041516;28;20048;-43
2023/09/15 04:25:07;;;;;;;9.30;6.88;;;10.10;99.90;;;;;;5040808;28;20451;-42
2023/09/15 04:27:34;;;;;;;16.73;7.68;;;10.10;99.90;;;;;;5022722;28;20084;-43
2023/09/15 04:30:00;;;;;;;10.70;7.22;;;10.10;99.90;;;;;;5041345;28;20059;-43
2023/09/15 04:32:26;;;;;;;11.05;7.47;;;10.10;99.90;;;;;;5041620;28;20099;-42
2023/09/15 04:34:52;;;;;;;13.18;8.32;;;10.10;99.90;;;;;;5006948;28;20155;-43
2023/09/15 04:37:20;;;;;;;9.85;6.80;;;10.10;99.90;;;;;;5022355;28;20198;-44
2023/09/15 04:39:47;;;;;;;11.50;7.65;;;10.10;99.90;;;;;;5023068;28;20056;-44
2023/09/15 04:42:12;;;;;;;14.60;7.55;;;10.10;99.90;;;;;;5040890;28;20051;-43
2023/09/15 04:44:39;;;;;;;9.32;7.63;;;10.10;99.90;;;;;;5006301;28;20415;-44
2023/09/15 04:47:05;;;;;;;10.70;7.25;;;10.10;99.90;;;;;;5022444;28;20029;-43
2023/09/15 04:49:31;;;;;;;11.48;7.22;;;10.10;99.90;;;;;;5040626;28;20056;-44
2023/09/15 04:51:57;;;;;;;14.57;7.90;;;10.10;99.90;;;;;;5022540;28;20465;-43
2023/09/15 04:54:22;;;;;;;12.60;7.97;;;10.10;99.90;;;;;;5021433;28;20555;-45
2023/09/15 04:56:48;;;;;;;13.82;7.47;;;10.00;99.90;;;;;;5005889;28;20067;-43
2023/09/15 04:59:16;;;;;;;12.82;7.53;;;10.00;99.90;;;;;;5040695;28;20487;-43
2023/09/15 05:01:43;;;;;;;11.80;7.18;;;10.00;99.90;;;;;;5040617;28;20465;-45
2023/09/15 05:04:10;;;;;;;8.73;6.90;;;10.00;99.90;;;;;;5010683;28;20046;-47
2023/09/15 05:06:35;;;;;;;11.98;7.55;;;10.00;99.90;;;;;;5038336;28;20041;-44
2023/09/15 05:09:04;;;;;;;10.98;7.40;;;10.00;99.90;;;;;;5040480;28;20520;-43
2023/09/15 05:11:30;;;;;;;11.25;7.85;;;10.00;99.90;;;;;;5018168;28;20460;-44
2023/09/15 05:13:56;;;;;;;10.23;8.32;;;10.00;99.90;;;;;;5022192;28;20056;-45
2023/09/15 05:16:23;;;;;;;10.07;7.35;;;10.00;99.90;;;;;;5039387;28;20044;-45
2023/09/15 05:18:48;;;;;;;12.43;7.75;;;10.00;99.90;;;;;;5040485;28;20188;-43
2023/09/15 05:21:14;;;;;;;8.48;7.35;;;10.00;99.90;;;;;;5005854;28;20670;-44
2023/09/15 05:23:40;;;;;;;13.43;8.70;;;10.10;99.90;;;;;;5040756;28;20072;-46
2023/09/15 05:26:07;;;;;;;11.07;8.10;;;10.10;99.90;;;;;;5039915;28;20037;-43
2023/09/15 05:28:33;;;;;;;8.82;7.03;;;10.10;99.90;;;;;;5022604;28;20615;-42
2023/09/15 05:31:00;;;;;;;11.77;6.93;;;10.10;99.90;;;;;;5040568;28;20048;-47
2023/09/15 05:33:28;;;;;;;10.48;7.25;;;10.10;99.90;;;;;;5040956;28;20128;-43
2023/09/15 05:35:55;;;;;;;9.85;7.82;;;10.20;99.90;;;;;;5005066;28;20041;-46
2023/09/15 05:38:22;;;;;;;11.02;7.53;;;10.30;99.90;;;;;;5040735;28;20114;-42
2023/09/15 05:40:47;;;;;;;10.93;8.00;;;10.30;99.90;;;;;;4993270;28;20052;-43
2023/09/15 05:43:13;;;;;;;11.93;7.32;;;10.30;99.90;;;;;;4999809;28;20419;-43
2023/09/15 05:45:38;;;;;;;9.18;7.35;;;10.40;99.90;;;;;;5022132;28;20484;-43
2023/09/15 05:48:04;;;;;;;9.60;7.75;;;10.40;99.90;;;;;;5038369;28;20048;-43
2023/09/15 05:50:30;;;;;;;10.15;7.75;;;10.40;99.90;;;;;;5021936;28;20041;-44
2023/09/15 05:52:55;;;;;;;9.57;7.53;;;10.50;99.90;;;;;;5040309;28;20045;-42
2023/09/15 05:55:21;;;;;;;9.02;7.30;;;10.60;99.90;;;;;;5039631;28;20045;-42
2023/09/15 05:57:46;;;;;;;9.20;7.50;;;11.00;99.90;;;;;;5039507;28;20041;-42
2023/09/15 06:00:12;;;;;;;9.15;6.75;;;11.90;99.90;;;;;;5005261;28;20546;-44
2023/09/15 06:02:38;;;;;;;11.68;7.07;;;12.90;99.90;;;;;;5040006;28;20041;-44
2023/09/15 06:05:04;;;;;;;9.85;6.80;;;14.00;99.90;;;;;;5039589;28;20041;-42
2023/09/15 06:07:29;;;;;;;7.57;6.30;;;15.00;99.90;;;;;;5043646;28;20063;-44
2023/09/15 06:09:55;;;;;;;9.15;6.13;;;15.50;99.90;;;;;;5043715;28;20416;-44
2023/09/15 06:12:21;;;;;;;10.43;5.85;;;15.40;99.90;;;;;;5009308;28;20095;-43
2023/09/15 06:14:46;;;;;;;9.15;5.90;;;15.60;99.90;;;;;;5008550;28;20118;-45
2023/09/15 06:17:12;;;;;;;9.45;5.47;;;16.10;99.90;;;;;;5043410;28;20039;-43
2023/09/15 06:19:38;;;;;;;10.25;5.60;;;16.90;99.90;;;;;;5043526;28;20048;-43
2023/09/15 06:22:05;;;;;;;9.40;6.05;;;17.50;99.90;;;;;;5043301;28;20044;-43
2023/09/15 06:24:30;;;;;;;9.82;5.55;;;18.00;99.90;;;;;;5024668;28;20047;-44
2023/09/15 06:26:56;;;;;;;7.50;5.38;;;18.50;99.90;;;;;;5043053;28;20029;-43
2023/09/15 06:29:21;;;;;;;7.88;5.28;;;19.00;99.90;;;;;;5043613;28;20076;-44
2023/09/15 06:31:47;;;;;;;7.82;5.65;;;19.50;99.90;;;;;;5043163;28;20040;-44
2023/09/15 06:34:13;;;;;;;9.05;5.53;;;19.90;99.90;;;;;;5042546;28;20068;-45
2023/09/15 06:36:39;;;;;;;9.60;5.03;;;20.30;99.90;;;;;;5043319;28;20110;-44
2023/09/15 06:39:07;;;;;;;9.73;4.55;;;20.70;99.90;;;;;;5043261;28;20056;-43
2023/09/15 06:41:32;;;;;;;9.70;4.72;;;21.00;99.30;;;;;;5043665;28;20630;-44
2023/09/15 06:43:59;;;;;;;7.85;4.80;;;21.40;99.10;;;;;;5043178;28;20108;-46
2023/09/15 06:46:25;;;;;;;8.27;4.75;;;21.60;97.50;;;;;;5042291;28;20420;-44
2023/09/15 06:48:50;;;;;;;6.13;4.70;;;21.60;97.20;;;;;;5024408;28;20033;-44
2023/09/15 06:51:16;;;;;;;8.10;4.68;;;21.70;96.30;;;;;;5042491;28;20118;-43
2023/09/15 06:53:42;;;;;;;7.57;5.45;;;21.20;97.80;;;;;;5042654;28;20044;-43
2023/09/15 06:56:07;;;;;;;9.40;4.78;;;20.90;98.10;;;;;;5042195;28;20037;-44
2023/09/15 06:58:33;;;;;;;10.80;4.72;;;20.70;97.80;;;;;;5042231;28;20577;-44
2023/09/15 07:00:58;;;;;;;9.23;4.82;;;20.20;98.50;;;;;;5024334;28;20045;-44
2023/09/15 07:03:26;;;;;;;7.43;4.50;;;19.90;99.50;;;;;;5039565;28;20061;-45
2023/09/15 07:05:52;;;;;;;9.82;5.05;;;19.80;99.90;;;;;;5023915;28;20114;-43
2023/09/15 07:08:18;;;;;;;7.15;5.15;;;19.40;99.90;;;;;;5042497;28;20447;-44
2023/09/15 07:10:44;;;;;;;10.43;4.50;;;19.00;99.90;;;;;;5042226;28;20049;-43
2023/09/15 07:13:10;;;;;;;8.68;4.95;;;18.60;99.90;;;;;;5032523;28;20041;-44
2023/09/15 07:15:36;;;;;;;6.65;4.53;;;18.60;99.90;;;;;;5053079;28;20392;-43
2023/09/15 07:18:04;;;;;;;6.80;4.80;;;18.50;99.90;;;;;;5034239;28;20106;-44
2023/09/15 07:20:30;;;;;;;9.50;5.22;;;18.60;99.90;;;;;;5051302;28;20163;-43
2023/09/15 07:22:56;;;;;;;8.02;4.93;;;18.40;99.90;;;;;;5031915;28;20040;-44
2023/09/15 07:25:22;;;;;;;8.52;4.30;;;18.40;99.90;;;;;;5051486;28;20343;-44
2023/09/15 07:27:48;;;;;;;8.48;5.07;;;18.50;99.90;;;;;;5051635;28;20559;-46
2023/09/15 07:30:15;;;;;;;6.72;4.13;;;18.50;99.90;;;;;;5050302;28;20045;-44
2023/09/15 07:32:41;;;;;;;8.75;4.68;;;18.30;99.90;;;;;;5048211;28;20036;-44
2023/09/15 07:35:09;;;;;;;7.18;4.35;;;18.30;99.90;;;;;;5052615;28;20380;-44
2023/09/15 07:37:36;;;;;;;9.27;4.65;;;18.30;99.90;;;;;;5051123;28;20075;-44
2023/09/15 07:40:02;;;;;;;8.38;4.45;;;18.30;99.90;;;;;;5050688;28;20429;-43
2023/09/15 07:42:28;;;;;;;9.15;4.65;;;18.30;99.90;;;;;;5050601;28;20515;-44
2023/09/15 07:44:53;;;;;;;7.63;4.15;;;18.30;99.90;;;;;;5031361;28;20157;-43
2023/09/15 07:47:19;;;;;;;7.13;4.38;;;18.20;99.90;;;;;;5049470;28;20511;-43
2023/09/15 07:49:45;;;;;;;8.95;4.60;;;18.20;99.90;;;;;;5023880;28;20081;-45
2023/09/15 07:52:11;;;;;;;8.43;5.30;;;18.20;99.90;;;;;;5007760;28;20129;-46
2023/09/15 07:54:37;;;;;;;7.43;4.90;;;18.20;99.90;;;;;;5041859;28;20035;-45
2023/09/15 07:57:03;;;;;;;7.88;4.40;;;18.30;99.90;;;;;;5023967;28;20060;-43
2023/09/15 07:59:30;;;;;;;9.15;4.88;;;18.30;99.90;;;;;;5042799;28;20048;-44
2023/09/15 08:01:56;;;;;;;5.82;3.92;;;18.20;99.90;;;;;;5042542;28;20124;-47
2023/09/15 08:04:22;;;;;;;8.30;4.72;;;18.30;99.90;;;;;;5041741;28;20112;-47
2023/09/15 08:06:49;;;;;;;7.88;4.30;;;18.30;99.90;;;;;;5023198;28;20519;-44
2023/09/15 08:09:16;;;;;;;7.13;4.20;;;18.40;99.90;;;;;;5021867;28;20064;-44
2023/09/15 08:11:41;;;;;;;7.82;4.60;;;18.50;99.90;;;;;;5022121;28;20044;-47
2023/09/15 08:14:07;;;;;;;9.63;5.45;;;18.50;99.90;;;;;;5022990;28;20048;-43
2023/09/15 08:16:33;;;;;;;8.35;4.18;;;18.50;99.90;;;;;;5037233;28;20041;-45
2023/09/15 08:18:59;;;;;;;8.52;4.93;;;18.60;99.90;;;;;;5035384;28;20037;-45
2023/09/15 08:21:25;;;;;;;9.30;4.60;;;18.50;99.90;;;;;;5041868;28;20552;-45
2023/09/15 08:23:51;;;;;;;9.32;4.20;;;18.60;99.90;;;;;;5023140;28;20086;-44
2023/09/15 08:26:16;;;;;;;8.73;4.28;;;18.70;99.90;;;;;;5022761;28;20044;-44
2023/09/15 08:28:42;;;;;;;8.55;4.75;;;18.80;99.90;;;;;;5040939;28;20091;-44
2023/09/15 08:31:08;;;;;;;10.73;4.53;;;18.80;99.90;;;;;;5022938;28;20407;-43
2023/09/15 08:33:34;;;;;;;9.40;4.28;;;18.90;99.90;;;;;;5040819;28;20123;-45
2023/09/15 08:36:03;;;;;;;5.75;4.40;;;19.00;99.90;;;;;;5040761;28;20400;-45
2023/09/15 08:38:31;;;;;;;6.55;4.40;;;19.00;99.90;;;;;;5041071;28;20033;-45
2023/09/15 08:41:05;;;;;;;7.93;4.43;;;19.00;99.90;;;;;;5040917;28;20044;-45
2023/09/15 08:43:32;;;;;;;7.32;4.20;;;19.00;99.90;;;;;;5022550;28;20044;-44
2023/09/15 08:45:58;;;;;;;5.70;4.07;;;19.00;99.90;;;;;;5005724;28;20492;-47
2023/09/15 08:48:29;;;;;;;7.43;4.78;;;19.20;99.90;;;;;;5039898;28;20098;-44
2023/09/15 08:50:57;;;;;;;8.52;4.53;;;19.10;99.90;;;;;;5006315;28;20044;-45
2023/09/15 08:53:23;;;;;;;8.38;4.00;;;19.20;99.90;;;;;;5040491;28;20052;-43
2023/09/15 08:55:49;;;;;;;7.13;4.20;;;19.20;99.90;;;;;;5039579;28;20390;-44
2023/09/15 08:58:15;;;;;;;11.65;4.97;;;19.30;99.90;;;;;;5040454;28;20044;-44
2023/09/15 09:00:42;;;;;;;8.52;4.80;;;19.30;99.90;;;;;;5022662;28;20051;-43
2023/09/15 09:03:12;;;;;;;8.88;5.25;;;19.30;99.90;;;;;;5021317;28;20086;-44
2023/09/15 09:05:39;;;;;;;8.32;4.75;;;19.30;99.90;;;;;;5037044;28;20055;-44
2023/09/15 09:08:05;;;;;;;6.63;5.03;;;19.20;99.90;;;;;;5040680;28;20045;-43
2023/09/15 09:10:30;;;;;;;7.70;4.90;;;19.30;99.90;;;;;;5039326;28;20340;-45
2023/09/15 09:12:56;;;;;;;10.25;5.63;;;19.40;99.90;;;;;;5040638;28;20525;-44
2023/09/15 09:15:22;;;;;;;8.63;5.45;;;19.50;99.90;;;;;;5039213;28;20516;-43
2023/09/15 09:17:48;;;;;;;7.55;5.28;;;19.60;99.90;;;;;;5021414;28;20048;-44
2023/09/15 09:20:27;;;;;;;9.75;5.57;;;19.70;99.90;;;;;;5039869;28;20041;-43
2023/09/15 09:22:53;;;;;;;9.32;5.40;;;19.90;99.90;;;;;;5018630;28;20321;-44
2023/09/15 09:25:26;;;;;;;11.00;6.53;;;19.90;99.90;;;;;;5039603;28;20041;-45
2023/09/15 09:27:52;;;;;;;8.88;5.88;;;20.00;99.90;;;;;;5038520;28;20049;-45
2023/09/15 09:30:18;;;;;;;10.18;6.40;;;20.10;99.90;;;;;;5039148;28;20656;-44
2023/09/15 09:32:44;;;;;;;10.38;6.40;;;20.10;99.90;;;;;;5028268;28;20048;-44
2023/09/15 09:35:12;;;;;;;8.68;5.72;;;20.10;99.90;;;;;;5039335;28;20041;-46
2023/09/15 09:37:37;;;;;;;8.35;6.10;;;20.20;99.90;;;;;;5005324;28;20408;-43
2023/09/15 09:40:06;;;;;;;11.30;6.38;;;20.30;99.90;;;;;;5040004;28;20098;-44
2023/09/15 09:42:34;;;;;;;11.27;5.72;;;20.40;99.90;;;;;;5025682;28;20041;-46
2023/09/15 09:45:00;;;;;;;9.15;5.75;;;20.40;99.90;;;;;;5041614;28;20765;-43
2023/09/15 09:47:26;;;;;;;10.68;5.80;;;20.40;99.90;;;;;;5042651;28;20056;-45
2023/09/15 09:49:52;;;;;;;8.13;6.95;;;20.60;99.90;;;;;;5042915;28;20041;-45
2023/09/15 09:52:17;;;;;;;10.32;5.97;;;20.50;99.90;;;;;;5009120;28;20048;-44
2023/09/15 09:54:44;;;;;;;8.65;5.63;;;20.50;99.90;;;;;;5025239;28;20095;-48
2023/09/15 09:57:09;;;;;;;10.18;5.75;;;20.50;99.90;;;;;;5025842;28;20424;-44
2023/09/15 09:59:38;;;;;;;10.40;6.47;;;20.50;99.90;;;;;;5044487;28;20041;-45
2023/09/15 10:02:04;;;;;;;9.35;5.20;;;20.60;99.90;;;;;;5043923;28;20051;-46
2023/09/15 10:04:29;;;;;;;8.30;5.47;;;20.70;99.90;;;;;;5043258;28;20321;-44
2023/09/15 10:06:56;;;;;;;10.20;4.90;;;20.70;99.90;;;;;;5043633;28;20124;-45
2023/09/15 10:09:22;;;;;;;5.80;4.32;;;20.80;99.90;;;;;;5043478;28;20127;-44
2023/09/15 10:11:49;;;;;;;8.25;4.22;;;20.80;99.90;;;;;;5043779;28;20045;-47
2023/09/15 10:14:17;;;;;;;5.47;3.35;;;20.80;99.90;;;;;;5025555;28;20472;-47
2023/09/15 10:16:45;;;;;;;6.97;3.00;;;20.80;99.90;;;;;;5024834;28;20053;-44
2023/09/15 10:19:13;;;;;;;6.35;3.33;;;20.80;99.90;;;;;;5043032;28;20361;-45
2023/09/15 10:21:40;;;;;;;6.22;3.00;;;20.90;99.90;;;;;;5026055;28;20490;-44
2023/09/15 10:24:07;;;;;;;7.13;3.10;;;20.90;99.90;;;;;;5024561;28;20044;-44
2023/09/15 10:26:34;;;;;;;8.25;3.22;;;20.90;99.90;;;;;;5024264;28;20098;-44
2023/09/15 10:29:04;;;;;;;6.72;3.03;;;21.00;99.90;;;;;;5042587;28;20048;-46
2023/09/15 10:31:32;;;;;;;5.03;2.65;;;21.10;99.60;;;;;;5024309;28;20142;-45
2023/09/15 10:34:04;;;;;;;6.97;2.70;;;21.10;99.90;;;;;;5023570;28;20053;-44
2023/09/15 10:36:32;;;;;;;5.82;2.90;;;21.10;99.90;;;;;;5048473;28;20198;-46
2023/09/15 10:38:58;;;;;;;5.78;3.13;;;21.10;99.60;;;;;;5043323;28;20165;-45
2023/09/15 10:41:30;;;;;;;9.20;3.47;;;21.00;99.10;;;;;;5024833;28;20491;-46
2023/09/15 10:43:56;;;;;;;6.53;3.33;;;21.00;99.90;;;;;;5037065;28;20070;-47
2023/09/15 10:46:39;;;;;;;7.43;3.30;;;20.90;99.90;;;;;;5025273;28;20045;-45
2023/09/15 10:49:15;;;;;;;7.13;3.47;;;21.00;99.90;;;;;;5044059;28;20546;-45
2023/09/15 10:52:01;;;;;;;6.43;3.40;;;20.90;99.50;;;;;;5043041;28;20416;-45
2023/09/15 10:54:32;;;;;;;6.43;3.15;;;20.90;99.90;;;;;;5025255;28;20443;-48
2023/09/15 10:56:59;;;;;;;6.72;3.00;;;21.00;99.80;;;;;;5009497;28;20149;-48
2023/09/15 10:59:26;;;;;;;8.45;3.63;;;20.90;99.90;;;;;;5043994;28;20068;-46
2023/09/15 11:01:53;;;;;;;8.15;3.80;;;20.90;99.90;;;;;;5044037;28;20118;-46
2023/09/15 11:04:21;;;;;;;5.60;3.50;;;20.90;99.90;;;;;;5043295;28;20198;-47
2023/09/15 11:06:53;;;;;;;5.10;3.13;;;20.90;99.90;;;;;;5025077;28;20187;-49
2023/09/15 11:09:20;;;;;;;5.32;3.53;;;20.90;99.30;;;;;;5043324;28;20053;-49
2023/09/15 11:11:50;;;;;;;5.32;3.17;;;20.90;98.60;;;;;;5041605;28;20405;-46
2023/09/15 11:14:24;;;;;;;5.90;3.42;;;20.90;98.40;;;;;;5042857;28;20052;-44
2023/09/15 11:16:51;;;;;;;7.47;3.10;;;21.00;98.20;;;;;;5008913;28;20044;-47
2023/09/15 11:19:18;;;;;;;7.25;2.88;;;20.80;99.20;;;;;;5023959;28;20547;-49
2023/09/15 11:21:45;;;;;;;10.70;3.45;;;20.80;99.80;;;;;;5041897;28;20049;-47
2023/09/15 11:24:11;;;;;;;6.65;3.72;;;20.90;99.30;;;;;;5042264;28;20721;-49
2023/09/15 11:26:45;;;;;;;4.68;2.80;;;20.80;99.90;;;;;;5041785;28;20037;-47
2023/09/15 11:29:11;;;;;;;7.13;3.20;;;20.90;99.90;;;;;;5024565;28;20051;-45
2023/09/15 11:31:38;;;;;;;5.32;2.88;;;20.80;99.70;;;;;;5024976;28;20120;-46
2023/09/15 11:34:05;;;;;;;6.10;2.92;;;20.70;99.70;;;;;;5042694;28;20048;-45
2023/09/15 11:36:35;;;;;;;6.82;3.40;;;20.80;98.90;;;;;;5042602;28;20707;-46
2023/09/15 11:39:15;;;;;;;5.70;2.75;;;20.90;98.80;;;;;;5025002;28;20128;-48
2023/09/15 11:41:54;;;;;;;5.68;3.53;;;20.80;99.90;;;;;;5024425;28;20041;-45
2023/09/15 11:44:25;;;;;;;9.65;3.33;;;20.80;98.70;;;;;;5042366;28;20041;-47
2023/09/15 11:46:52;;;;;;;6.60;3.15;;;20.90;99.40;;;;;;5023324;28;20091;-47
2023/09/15 11:49:19;;;;;;;5.53;2.72;;;21.00;99.40;;;;;;5042511;28;20349;-48
2023/09/15 11:51:46;;;;;;;6.28;3.00;;;21.00;99.40;;;;;;5022122;28;20439;-46
2023/09/15 11:54:12;;;;;;;9.63;3.50;;;21.20;99.70;;;;;;5039391;28;20118;-44
2023/09/15 11:56:38;;;;;;;11.48;3.65;;;21.30;98.80;;;;;;5039825;28;20437;-45
2023/09/15 11:59:05;;;;;;;5.90;3.38;;;21.30;99.30;;;;;;5039872;28;20363;-47
2023/09/15 12:01:31;;;;;;;7.78;3.85;;;21.30;98.50;;;;;;5040639;28;20045;-50
2023/09/15 12:03:58;;;;;;;5.32;3.00;;;21.20;98.30;;;;;;5039511;28;20268;-46
2023/09/15 12:06:24;;;;;;;9.10;4.13;;;21.20;98.00;;;;;;5040295;28;20047;-45
2023/09/15 12:08:51;;;;;;;5.50;3.30;;;21.10;99.50;;;;;;5023405;28;20092;-44
2023/09/15 12:11:18;;;;;;;6.93;3.53;;;21.10;99.90;;;;;;5041436;28;20811;-45
2023/09/15 12:13:48;;;;;;;6.60;3.45;;;21.00;99.90;;;;;;5022751;28;20079;-46
2023/09/15 12:16:28;;;;;;;8.45;3.33;;;21.20;99.90;;;;;;5037405;28;20041;-45
2023/09/15 12:18:54;;;;;;;7.63;3.63;;;21.10;99.90;;;;;;5036291;28;20119;-46
2023/09/15 12:21:24;;;;;;;6.57;3.22;;;21.10;99.40;;;;;;5022860;28;20410;-44
2023/09/15 12:23:51;;;;;;;5.60;3.05;;;21.20;99.90;;;;;;5036672;28;20370;-45
2023/09/15 12:26:17;;;;;;;6.65;4.03;;;21.20;99.30;;;;;;5031645;28;20044;-45
2023/09/15 12:28:43;;;;;;;5.57;3.10;;;21.30;99.70;;;;;;5005828;28;20079;-47
2023/09/15 12:31:20;;;;;;;6.47;3.67;;;21.30;99.90;;;;;;5040722;28;20148;-45
2023/09/15 12:33:53;;;;;;;7.32;3.35;;;21.30;99.90;;;;;;5033793;28;20045;-45
2023/09/15 12:36:22;;;;;;;7.28;4.00;;;21.50;99.40;;;;;;5020068;28;20083;-45
2023/09/15 12:38:48;;;;;;;7.05;3.75;;;21.50;98.50;;;;;;5022667;28;20045;-46
2023/09/15 12:41:14;;;;;;;5.78;3.53;;;21.50;99.10;;;;;;5041029;28;20047;-44
2023/09/15 12:43:40;;;;;;;5.47;3.65;;;21.50;98.80;;;;;;5022382;28;20041;-44